sensor_id;sensor_type;location;lat;lon;timestamp;pressure;altitude;pressure_sealevel;temperature;humidity
74552;BME280;63025;55.472;38.432;2023-04-08T00:01:07;101321.06;;;1.55;54.94
74552;BME280;63025;55.472;38.432;2023-04-08T00:03:33;101323.94;;;1.52;54.96
74552;BME280;63025;55.472;38.432;2023-04-08T00:05:58;101327.56;;;1.51;55.17
74552;BME280;63025;55.472;38.432;2023-04-08T00:08:27;101325.25;;;1.46;54.57
74552;BME280;63025;55.472;38.432;2023-04-08T00:10:52;101326.59;;;1.40;54.95
74552;BME280;63025;55.472;38.432;2023-04-08T00:13:18;101329.72;;;1.34;55.53
74552;BME280;63025;55.472;38.432;2023-04-08T00:15:44;101337.06;;;1.31;55.69
74552;BME280;63025;55.472;38.432;2023-04-08T00:18:10;101325.13;;;1.25;55.67
74552;BME280;63025;55.472;38.432;2023-04-08T00:20:36;101326.22;;;1.23;56.12
74552;BME280;63025;55.472;38.432;2023-04-08T00:23:01;101324.88;;;1.17;56.50
74552;BME280;63025;55.472;38.432;2023-04-08T00:25:27;101324.28;;;1.14;57.63
74552;BME280;63025;55.472;38.432;2023-04-08T00:27:53;101321.97;;;1.09;58.11
74552;BME280;63025;55.472;38.432;2023-04-08T00:30:19;101327.75;;;1.03;58.31
74552;BME280;63025;55.472;38.432;2023-04-08T00:32:45;101318.81;;;0.93;58.92
74552;BME280;63025;55.472;38.432;2023-04-08T00:35:12;101332.88;;;0.93;58.91
74552;BME280;63025;55.472;38.432;2023-04-08T00:37:39;101326.25;;;0.88;59.33
74552;BME280;63025;55.472;38.432;2023-04-08T00:40:05;101328.41;;;0.83;60.39
74552;BME280;63025;55.472;38.432;2023-04-08T00:42:31;101330.44;;;0.79;60.47
74552;BME280;63025;55.472;38.432;2023-04-08T00:44:57;101325.34;;;0.76;60.44
74552;BME280;63025;55.472;38.432;2023-04-08T00:47:23;101332.81;;;0.71;60.33
74552;BME280;63025;55.472;38.432;2023-04-08T00:49:49;101321.59;;;0.67;60.76
74552;BME280;63025;55.472;38.432;2023-04-08T00:52:15;101321.81;;;0.64;60.86
74552;BME280;63025;55.472;38.432;2023-04-08T00:54:41;101327.34;;;0.61;61.16
74552;BME280;63025;55.472;38.432;2023-04-08T00:57:07;101329.28;;;0.59;61.78
74552;BME280;63025;55.472;38.432;2023-04-08T00:59:33;101332.13;;;0.56;61.68
74552;BME280;63025;55.472;38.432;2023-04-08T01:02:10;101322.72;;;0.52;61.02
74552;BME280;63025;55.472;38.432;2023-04-08T01:05:19;101328.25;;;0.49;61.41
74552;BME280;63025;55.472;38.432;2023-04-08T01:07:47;101327.63;;;0.46;61.74
74552;BME280;63025;55.472;38.432;2023-04-08T01:10:20;101334.09;;;0.42;61.28
74552;BME280;63025;55.472;38.432;2023-04-08T01:12:58;101322.19;;;0.36;61.52
74552;BME280;63025;55.472;38.432;2023-04-08T01:15:28;101331.16;;;0.33;61.75
74552;BME280;63025;55.472;38.432;2023-04-08T01:17:56;101321.78;;;0.29;62.05
74552;BME280;63025;55.472;38.432;2023-04-08T01:20:25;101324.03;;;0.23;62.19
74552;BME280;63025;55.472;38.432;2023-04-08T01:23:05;101332.41;;;0.17;62.23
74552;BME280;63025;55.472;38.432;2023-04-08T01:25:36;101327.34;;;0.14;62.25
74552;BME280;63025;55.472;38.432;2023-04-08T01:28:10;101327.56;;;0.11;62.48
74552;BME280;63025;55.472;38.432;2023-04-08T01:30:38;101328.84;;;0.05;62.45
74552;BME280;63025;55.472;38.432;2023-04-08T01:33:05;101329.06;;;0.02;62.82
74552;BME280;63025;55.472;38.432;2023-04-08T01:35:32;101327.38;;;0.01;62.86
74552;BME280;63025;55.472;38.432;2023-04-08T01:37:58;101327.50;;;-0.01;63.20
74552;BME280;63025;55.472;38.432;2023-04-08T01:40:25;101333.75;;;-0.02;62.66
74552;BME280;63025;55.472;38.432;2023-04-08T01:42:56;101325.28;;;-0.07;62.42
74552;BME280;63025;55.472;38.432;2023-04-08T01:45:22;101328.03;;;-0.08;62.72
74552;BME280;63025;55.472;38.432;2023-04-08T01:47:49;101331.75;;;-0.11;62.93
74552;BME280;63025;55.472;38.432;2023-04-08T01:50:15;101318.66;;;-0.12;62.97
74552;BME280;63025;55.472;38.432;2023-04-08T01:52:47;101332.72;;;-0.12;63.32
74552;BME280;63025;55.472;38.432;2023-04-08T01:55:14;101322.47;;;-0.16;63.28
74552;BME280;63025;55.472;38.432;2023-04-08T01:57:43;101333.88;;;-0.16;63.32
74552;BME280;63025;55.472;38.432;2023-04-08T02:00:13;101332.53;;;-0.21;64.28
74552;BME280;63025;55.472;38.432;2023-04-08T02:02:46;101333.38;;;-0.21;64.79
74552;BME280;63025;55.472;38.432;2023-04-08T02:05:13;101335.47;;;-0.26;64.88
74552;BME280;63025;55.472;38.432;2023-04-08T02:07:39;101330.41;;;-0.29;64.50
74552;BME280;63025;55.472;38.432;2023-04-08T02:10:05;101334.72;;;-0.28;64.69
74552;BME280;63025;55.472;38.432;2023-04-08T02:12:32;101328.09;;;-0.33;65.09
74552;BME280;63025;55.472;38.432;2023-04-08T02:14:58;101334.22;;;-0.33;65.10
74552;BME280;63025;55.472;38.432;2023-04-08T02:20:09;101342.25;;;-0.34;64.99
74552;BME280;63025;55.472;38.432;2023-04-08T02:25:16;101344.16;;;-0.37;64.91
74552;BME280;63025;55.472;38.432;2023-04-08T02:27:44;101352.19;;;-0.38;64.98
74552;BME280;63025;55.472;38.432;2023-04-08T02:30:12;101348.19;;;-0.44;65.58
74552;BME280;63025;55.472;38.432;2023-04-08T02:32:38;101349.75;;;-0.41;65.23
74552;BME280;63025;55.472;38.432;2023-04-08T02:35:04;101351.56;;;-0.42;65.39
74552;BME280;63025;55.472;38.432;2023-04-08T02:37:31;101345.44;;;-0.42;65.28
74552;BME280;63025;55.472;38.432;2023-04-08T02:39:57;101342.66;;;-0.41;65.44
74552;BME280;63025;55.472;38.432;2023-04-08T02:42:23;101347.84;;;-0.39;65.25
74552;BME280;63025;55.472;38.432;2023-04-08T02:44:51;101351.34;;;-0.39;65.70
74552;BME280;63025;55.472;38.432;2023-04-08T02:47:17;101351.56;;;-0.42;65.85
74552;BME280;63025;55.472;38.432;2023-04-08T02:49:43;101351.56;;;-0.42;65.66
74552;BME280;63025;55.472;38.432;2023-04-08T02:52:08;101348.59;;;-0.37;65.82
74552;BME280;63025;55.472;38.432;2023-04-08T02:54:34;101348.94;;;-0.42;66.39
74552;BME280;63025;55.472;38.432;2023-04-08T02:57:00;101343.50;;;-0.40;66.50
74552;BME280;63025;55.472;38.432;2023-04-08T02:59:26;101351.97;;;-0.35;66.41
74552;BME280;63025;55.472;38.432;2023-04-08T03:01:52;101346.69;;;-0.35;66.54
74552;BME280;63025;55.472;38.432;2023-04-08T03:04:17;101350.91;;;-0.32;66.57
74552;BME280;63025;55.472;38.432;2023-04-08T03:06:43;101353.44;;;-0.31;66.64
74552;BME280;63025;55.472;38.432;2023-04-08T03:09:09;101360.41;;;-0.30;66.64
74552;BME280;63025;55.472;38.432;2023-04-08T03:11:34;101353.88;;;-0.24;66.67
74552;BME280;63025;55.472;38.432;2023-04-08T03:14:00;101346.44;;;-0.19;66.75
74552;BME280;63025;55.472;38.432;2023-04-08T03:16:26;101353.09;;;-0.14;66.44
74552;BME280;63025;55.472;38.432;2023-04-08T03:18:51;101359.13;;;-0.12;66.39
74552;BME280;63025;55.472;38.432;2023-04-08T03:21:17;101361.97;;;-0.02;66.21
74552;BME280;63025;55.472;38.432;2023-04-08T03:23:43;101364.78;;;0.08;65.87
74552;BME280;63025;55.472;38.432;2023-04-08T03:26:10;101360.25;;;0.10;65.97
74552;BME280;63025;55.472;38.432;2023-04-08T03:28:36;101365.56;;;0.21;66.23
74552;BME280;63025;55.472;38.432;2023-04-08T03:31:02;101360.72;;;0.27;65.76
74552;BME280;63025;55.472;38.432;2023-04-08T03:33:28;101362.59;;;0.38;65.16
74552;BME280;63025;55.472;38.432;2023-04-08T03:35:54;101366.13;;;0.50;65.87
74552;BME280;63025;55.472;38.432;2023-04-08T03:38:20;101361.97;;;0.58;65.44
74552;BME280;63025;55.472;38.432;2023-04-08T03:40:46;101365.84;;;0.65;65.07
74552;BME280;63025;55.472;38.432;2023-04-08T03:43:12;101367.91;;;0.73;64.84
74552;BME280;63025;55.472;38.432;2023-04-08T03:45:39;101369.75;;;0.84;64.46
74552;BME280;63025;55.472;38.432;2023-04-08T03:48:05;101365.72;;;0.91;64.76
74552;BME280;63025;55.472;38.432;2023-04-08T03:50:31;101369.25;;;1.02;64.34
74552;BME280;63025;55.472;38.432;2023-04-08T03:52:56;101373.59;;;1.15;63.74
74552;BME280;63025;55.472;38.432;2023-04-08T03:55:22;101370.75;;;1.29;63.76
74552;BME280;63025;55.472;38.432;2023-04-08T03:57:48;101374.25;;;1.40;63.36
74552;BME280;63025;55.472;38.432;2023-04-08T04:00:14;101377.41;;;1.57;63.39
74552;BME280;63025;55.472;38.432;2023-04-08T04:02:40;101374.78;;;1.68;62.86
74552;BME280;63025;55.472;38.432;2023-04-08T04:05:06;101374.53;;;1.82;62.90
74552;BME280;63025;55.472;38.432;2023-04-08T04:07:32;101369.97;;;1.95;61.90
74552;BME280;63025;55.472;38.432;2023-04-08T04:09:57;101372.34;;;2.09;62.19
74552;BME280;63025;55.472;38.432;2023-04-08T04:12:23;101374.16;;;2.20;61.82
74552;BME280;63025;55.472;38.432;2023-04-08T04:14:49;101372.94;;;2.24;60.95
74552;BME280;63025;55.472;38.432;2023-04-08T04:17:15;101369.91;;;2.29;61.06
74552;BME280;63025;55.472;38.432;2023-04-08T04:19:40;101381.00;;;2.34;60.79
74552;BME280;63025;55.472;38.432;2023-04-08T04:22:06;101378.31;;;2.45;60.59
74552;BME280;63025;55.472;38.432;2023-04-08T04:24:32;101379.25;;;2.55;60.58
74552;BME280;63025;55.472;38.432;2023-04-08T04:26:57;101377.03;;;2.71;60.07
74552;BME280;63025;55.472;38.432;2023-04-08T04:29:23;101373.25;;;2.85;59.45
74552;BME280;63025;55.472;38.432;2023-04-08T04:31:49;101377.41;;;2.99;59.73
74552;BME280;63025;55.472;38.432;2023-04-08T04:34:15;101375.56;;;3.10;59.39
74552;BME280;63025;55.472;38.432;2023-04-08T04:36:40;101378.53;;;3.17;58.44
74552;BME280;63025;55.472;38.432;2023-04-08T04:39:06;101381.25;;;3.26;58.67
74552;BME280;63025;55.472;38.432;2023-04-08T04:41:32;101371.66;;;3.35;58.75
74552;BME280;63025;55.472;38.432;2023-04-08T04:43:59;101385.34;;;3.51;58.09
74552;BME280;63025;55.472;38.432;2023-04-08T04:46:25;101377.00;;;3.65;57.95
74552;BME280;63025;55.472;38.432;2023-04-08T04:48:51;101379.31;;;3.80;58.18
74552;BME280;63025;55.472;38.432;2023-04-08T04:51:17;101372.09;;;3.91;57.32
74552;BME280;63025;55.472;38.432;2023-04-08T04:53:43;101388.53;;;4.06;56.61
74552;BME280;63025;55.472;38.432;2023-04-08T04:56:08;101379.47;;;4.18;56.75
74552;BME280;63025;55.472;38.432;2023-04-08T04:58:34;101381.88;;;4.31;56.38
74552;BME280;63025;55.472;38.432;2023-04-08T05:01:00;101385.16;;;4.44;56.28
74552;BME280;63025;55.472;38.432;2023-04-08T05:03:26;101382.91;;;4.59;55.55
74552;BME280;63025;55.472;38.432;2023-04-08T05:05:52;101375.53;;;4.72;55.39
74552;BME280;63025;55.472;38.432;2023-04-08T05:08:19;101383.94;;;4.87;55.30
74552;BME280;63025;55.472;38.432;2023-04-08T05:10:45;101380.72;;;5.02;54.62
74552;BME280;63025;55.472;38.432;2023-04-08T05:13:11;101383.22;;;5.13;53.81
74552;BME280;63025;55.472;38.432;2023-04-08T05:15:37;101396.13;;;5.28;53.65
74552;BME280;63025;55.472;38.432;2023-04-08T05:18:03;101398.34;;;5.32;53.54
74552;BME280;63025;55.472;38.432;2023-04-08T05:20:28;101392.31;;;5.49;53.41
74552;BME280;63025;55.472;38.432;2023-04-08T05:22:54;101388.91;;;5.67;52.74
74552;BME280;63025;55.472;38.432;2023-04-08T05:25:20;101395.88;;;5.77;52.62
74552;BME280;63025;55.472;38.432;2023-04-08T05:28:01;101405.28;;;5.91;52.14
74552;BME280;63025;55.472;38.432;2023-04-08T05:30:27;101405.25;;;6.01;51.72
74552;BME280;63025;55.472;38.432;2023-04-08T05:32:53;101406.91;;;6.11;51.70
74552;BME280;63025;55.472;38.432;2023-04-08T05:35:18;101410.50;;;6.20;51.79
74552;BME280;63025;55.472;38.432;2023-04-08T05:37:44;101407.28;;;6.16;51.29
74552;BME280;63025;55.472;38.432;2023-04-08T05:40:10;101406.72;;;6.22;51.03
74552;BME280;63025;55.472;38.432;2023-04-08T05:42:36;101402.97;;;6.06;50.51
74552;BME280;63025;55.472;38.432;2023-04-08T05:45:02;101417.41;;;6.13;50.66
74552;BME280;63025;55.472;38.432;2023-04-08T05:47:28;101422.06;;;6.11;50.66
74552;BME280;63025;55.472;38.432;2023-04-08T05:49:54;101408.22;;;6.25;50.99
74552;BME280;63025;55.472;38.432;2023-04-08T05:52:19;101415.47;;;6.42;50.50
74552;BME280;63025;55.472;38.432;2023-04-08T05:54:45;101416.03;;;6.63;50.70
74552;BME280;63025;55.472;38.432;2023-04-08T05:57:11;101416.41;;;6.69;50.24
74552;BME280;63025;55.472;38.432;2023-04-08T05:59:37;101420.78;;;6.87;50.41
74552;BME280;63025;55.472;38.432;2023-04-08T06:02:03;101415.53;;;6.95;49.36
74552;BME280;63025;55.472;38.432;2023-04-08T06:04:28;101411.88;;;7.14;49.37
74552;BME280;63025;55.472;38.432;2023-04-08T06:06:54;101415.91;;;7.36;49.22
74552;BME280;63025;55.472;38.432;2023-04-08T06:09:24;101401.75;;;7.44;49.12
74552;BME280;63025;55.472;38.432;2023-04-08T06:11:50;101406.47;;;7.50;48.91
74552;BME280;63025;55.472;38.432;2023-04-08T06:14:16;101417.91;;;7.60;49.13
74552;BME280;63025;55.472;38.432;2023-04-08T06:16:42;101409.31;;;7.74;48.57
74552;BME280;63025;55.472;38.432;2023-04-08T06:19:08;101417.91;;;7.60;48.37
74552;BME280;63025;55.472;38.432;2023-04-08T06:21:34;101414.47;;;7.67;48.43
74552;BME280;63025;55.472;38.432;2023-04-08T06:23:59;101415.75;;;7.89;48.51
74552;BME280;63025;55.472;38.432;2023-04-08T06:26:25;101413.47;;;8.02;48.15
74552;BME280;63025;55.472;38.432;2023-04-08T06:28:53;101411.25;;;8.24;47.25
74552;BME280;63025;55.472;38.432;2023-04-08T06:31:19;101404.16;;;8.40;47.05
74552;BME280;63025;55.472;38.432;2023-04-08T06:33:45;101408.72;;;8.56;47.41
74552;BME280;63025;55.472;38.432;2023-04-08T06:36:11;101404.75;;;8.76;47.15
74552;BME280;63025;55.472;38.432;2023-04-08T06:38:38;101409.13;;;8.94;47.32
74552;BME280;63025;55.472;38.432;2023-04-08T06:41:07;101406.81;;;9.15;47.28
74552;BME280;63025;55.472;38.432;2023-04-08T06:43:34;101411.53;;;9.29;45.99
74552;BME280;63025;55.472;38.432;2023-04-08T06:46:00;101411.19;;;9.48;45.89
74552;BME280;63025;55.472;38.432;2023-04-08T06:48:26;101410.50;;;9.63;45.86
74552;BME280;63025;55.472;38.432;2023-04-08T06:50:55;101414.69;;;9.81;45.21
74552;BME280;63025;55.472;38.432;2023-04-08T06:53:25;101406.13;;;9.86;44.65
74552;BME280;63025;55.472;38.432;2023-04-08T06:55:51;101409.63;;;9.94;44.46
74552;BME280;63025;55.472;38.432;2023-04-08T06:58:17;101407.41;;;9.98;43.98
74552;BME280;63025;55.472;38.432;2023-04-08T07:00:43;101409.56;;;10.19;44.13
74552;BME280;63025;55.472;38.432;2023-04-08T07:03:08;101400.91;;;10.40;43.90
74552;BME280;63025;55.472;38.432;2023-04-08T07:05:36;101395.63;;;10.54;43.77
74552;BME280;63025;55.472;38.432;2023-04-08T07:08:03;101401.06;;;10.77;43.36
74552;BME280;63025;55.472;38.432;2023-04-08T07:10:29;101402.97;;;10.91;43.07
74552;BME280;63025;55.472;38.432;2023-04-08T07:12:55;101396.06;;;10.97;42.63
74552;BME280;63025;55.472;38.432;2023-04-08T07:15:21;101396.31;;;11.10;42.41
74552;BME280;63025;55.472;38.432;2023-04-08T07:17:46;101393.72;;;11.17;41.85
74552;BME280;63025;55.472;38.432;2023-04-08T07:20:12;101388.16;;;11.41;41.96
74552;BME280;63025;55.472;38.432;2023-04-08T07:22:39;101395.88;;;11.59;42.06
74552;BME280;63025;55.472;38.432;2023-04-08T07:25:05;101391.19;;;11.75;41.41
74552;BME280;63025;55.472;38.432;2023-04-08T07:27:33;101383.41;;;11.81;41.37
74552;BME280;63025;55.472;38.432;2023-04-08T07:29:59;101386.88;;;11.66;40.41
74552;BME280;63025;55.472;38.432;2023-04-08T07:32:25;101381.78;;;11.71;40.31
74552;BME280;63025;55.472;38.432;2023-04-08T07:34:51;101375.72;;;11.92;40.38
74552;BME280;63025;55.472;38.432;2023-04-08T07:37:17;101375.75;;;12.28;40.66
74552;BME280;63025;55.472;38.432;2023-04-08T07:39:43;101384.00;;;12.56;40.10
74552;BME280;63025;55.472;38.432;2023-04-08T07:42:09;101378.53;;;12.85;39.51
74552;BME280;63025;55.472;38.432;2023-04-08T07:44:34;101373.50;;;12.82;37.85
74552;BME280;63025;55.472;38.432;2023-04-08T07:47:00;101375.03;;;13.28;37.93
74552;BME280;63025;55.472;38.432;2023-04-08T07:49:26;101380.63;;;13.82;37.69
74552;BME280;63025;55.472;38.432;2023-04-08T07:51:52;101381.84;;;14.14;36.49
74552;BME280;63025;55.472;38.432;2023-04-08T07:54:18;101380.03;;;14.68;35.74
74552;BME280;63025;55.472;38.432;2023-04-08T07:56:43;101370.38;;;15.60;35.20
74552;BME280;63025;55.472;38.432;2023-04-08T07:59:10;101380.47;;;16.24;33.70
74552;BME280;63025;55.472;38.432;2023-04-08T08:01:36;101376.22;;;16.41;32.95
74552;BME280;63025;55.472;38.432;2023-04-08T08:04:02;101375.06;;;17.06;31.81
74552;BME280;63025;55.472;38.432;2023-04-08T08:06:28;101378.38;;;18.08;30.93
74552;BME280;63025;55.472;38.432;2023-04-08T08:08:54;101366.03;;;18.90;30.05
74552;BME280;63025;55.472;38.432;2023-04-08T08:11:20;101374.13;;;20.08;29.08
74552;BME280;63025;55.472;38.432;2023-04-08T08:13:46;101368.16;;;20.34;26.97
74552;BME280;63025;55.472;38.432;2023-04-08T08:16:12;101372.41;;;20.54;26.69
74552;BME280;63025;55.472;38.432;2023-04-08T08:18:39;101359.94;;;19.59;26.04
74552;BME280;63025;55.472;38.432;2023-04-08T08:21:05;101366.63;;;20.38;26.29
74552;BME280;63025;55.472;38.432;2023-04-08T08:23:31;101369.94;;;20.40;25.42
74552;BME280;63025;55.472;38.432;2023-04-08T08:26:05;101375.09;;;21.94;24.84
74552;BME280;63025;55.472;38.432;2023-04-08T08:28:32;101367.19;;;23.06;24.30
74552;BME280;63025;55.472;38.432;2023-04-08T08:30:58;101369.28;;;23.53;22.70
74552;BME280;63025;55.472;38.432;2023-04-08T08:33:24;101377.84;;;24.09;22.65
74552;BME280;63025;55.472;38.432;2023-04-08T08:35:51;101371.81;;;24.74;21.96
74552;BME280;63025;55.472;38.432;2023-04-08T08:38:17;101365.31;;;25.01;21.03
74552;BME280;63025;55.472;38.432;2023-04-08T08:40:44;101363.69;;;25.61;20.93
74552;BME280;63025;55.472;38.432;2023-04-08T08:43:10;101361.41;;;25.98;20.64
74552;BME280;63025;55.472;38.432;2023-04-08T08:45:40;101363.38;;;25.87;19.76
74552;BME280;63025;55.472;38.432;2023-04-08T08:48:06;101356.50;;;25.59;20.19
74552;BME280;63025;55.472;38.432;2023-04-08T08:50:35;101364.25;;;25.73;19.99
74552;BME280;63025;55.472;38.432;2023-04-08T08:53:01;101365.31;;;25.36;20.22
74552;BME280;63025;55.472;38.432;2023-04-08T08:55:30;101367.75;;;25.99;20.00
74552;BME280;63025;55.472;38.432;2023-04-08T08:58:01;101362.25;;;25.88;19.63
74552;BME280;63025;55.472;38.432;2023-04-08T09:00:37;101355.97;;;25.73;19.31
74552;BME280;63025;55.472;38.432;2023-04-08T09:03:23;101360.47;;;26.38;19.30
74552;BME280;63025;55.472;38.432;2023-04-08T09:05:54;101359.34;;;26.39;18.93
74552;BME280;63025;55.472;38.432;2023-04-08T09:08:24;101377.56;;;26.94;19.10
74552;BME280;63025;55.472;38.432;2023-04-08T09:10:51;101354.88;;;25.28;19.69
74552;BME280;63025;55.472;38.432;2023-04-08T09:13:17;101370.16;;;26.36;18.91
74552;BME280;63025;55.472;38.432;2023-04-08T09:16:01;101355.09;;;26.62;18.85
74552;BME280;63025;55.472;38.432;2023-04-08T09:18:28;101364.44;;;26.71;18.47
74552;BME280;63025;55.472;38.432;2023-04-08T09:20:54;101361.50;;;25.63;19.21
74552;BME280;63025;55.472;38.432;2023-04-08T09:23:19;101363.31;;;26.08;19.50
74552;BME280;63025;55.472;38.432;2023-04-08T09:25:45;101357.81;;;24.71;19.46
74552;BME280;63025;55.472;38.432;2023-04-08T09:28:20;101339.97;;;24.88;20.21
74552;BME280;63025;55.472;38.432;2023-04-08T09:30:46;101337.13;;;24.48;20.14
74552;BME280;63025;55.472;38.432;2023-04-08T09:33:12;101359.19;;;24.11;20.02
74552;BME280;63025;55.472;38.432;2023-04-08T09:35:38;101343.84;;;24.98;19.77
74552;BME280;63025;55.472;38.432;2023-04-08T09:38:04;101355.69;;;25.84;19.10
74552;BME280;63025;55.472;38.432;2023-04-08T09:40:32;101352.31;;;26.03;19.06
74552;BME280;63025;55.472;38.432;2023-04-08T09:43:04;101339.56;;;26.17;18.43
74552;BME280;63025;55.472;38.432;2023-04-08T09:45:35;101355.03;;;26.08;18.21
74552;BME280;63025;55.472;38.432;2023-04-08T09:48:31;101340.75;;;24.69;19.16
74552;BME280;63025;55.472;38.432;2023-04-08T09:51:03;101338.28;;;24.77;20.03
74552;BME280;63025;55.472;38.432;2023-04-08T09:53:35;101340.28;;;25.07;19.29
74552;BME280;63025;55.472;38.432;2023-04-08T09:56:06;101344.53;;;24.52;19.59
74552;BME280;63025;55.472;38.432;2023-04-08T09:58:38;101323.78;;;24.14;19.54
74552;BME280;63025;55.472;38.432;2023-04-08T10:01:08;101340.31;;;24.25;20.30
74552;BME280;63025;55.472;38.432;2023-04-08T10:03:39;101338.28;;;25.94;19.27
74552;BME280;63025;55.472;38.432;2023-04-08T10:06:10;101330.84;;;27.37;17.88
74552;BME280;63025;55.472;38.432;2023-04-08T10:08:36;101333.47;;;27.52;17.15
74552;BME280;63025;55.472;38.432;2023-04-08T10:11:02;101341.88;;;26.64;17.70
74552;BME280;63025;55.472;38.432;2023-04-08T10:13:29;101345.91;;;26.27;17.81
74552;BME280;63025;55.472;38.432;2023-04-08T10:18:43;101337.66;;;26.12;18.62
74552;BME280;63025;55.472;38.432;2023-04-08T10:21:36;101338.88;;;25.55;18.35
74552;BME280;63025;55.472;38.432;2023-04-08T10:24:07;101332.19;;;24.50;18.86
74552;BME280;63025;55.472;38.432;2023-04-08T10:26:41;101331.00;;;24.26;19.40
74552;BME280;63025;55.472;38.432;2023-04-08T10:31:42;101327.63;;;26.42;18.44
74552;BME280;63025;55.472;38.432;2023-04-08T10:34:28;101327.56;;;26.57;17.92
74552;BME280;63025;55.472;38.432;2023-04-08T10:36:56;101328.06;;;26.00;18.23
74552;BME280;63025;55.472;38.432;2023-04-08T10:39:24;101321.47;;;26.60;17.66
74552;BME280;63025;55.472;38.432;2023-04-08T10:41:50;101323.69;;;27.36;17.08
74552;BME280;63025;55.472;38.432;2023-04-08T10:44:24;101323.09;;;28.21;16.72
74552;BME280;63025;55.472;38.432;2023-04-08T10:46:51;101321.25;;;26.95;16.92
74552;BME280;63025;55.472;38.432;2023-04-08T10:49:17;101313.16;;;27.09;17.00
74552;BME280;63025;55.472;38.432;2023-04-08T10:51:45;101314.66;;;28.07;16.68
74552;BME280;63025;55.472;38.432;2023-04-08T10:54:12;101312.53;;;26.78;16.96
74552;BME280;63025;55.472;38.432;2023-04-08T10:56:47;101311.44;;;27.18;17.06
74552;BME280;63025;55.472;38.432;2023-04-08T10:59:15;101310.88;;;27.16;16.77
74552;BME280;63025;55.472;38.432;2023-04-08T11:01:43;101308.78;;;26.59;17.40
74552;BME280;63025;55.472;38.432;2023-04-08T11:04:11;101303.81;;;27.34;16.95
74552;BME280;63025;55.472;38.432;2023-04-08T11:06:37;101297.72;;;26.10;17.49
74552;BME280;63025;55.472;38.432;2023-04-08T11:09:03;101297.56;;;27.23;17.24
74552;BME280;63025;55.472;38.432;2023-04-08T11:11:29;101292.78;;;26.02;17.57
74552;BME280;63025;55.472;38.432;2023-04-08T11:13:56;101299.25;;;25.51;17.92
74552;BME280;63025;55.472;38.432;2023-04-08T11:16:22;101287.63;;;27.22;17.21
74552;BME280;63025;55.472;38.432;2023-04-08T11:18:49;101299.72;;;28.08;16.86
74552;BME280;63025;55.472;38.432;2023-04-08T11:21:15;101282.97;;;27.75;16.82
74552;BME280;63025;55.472;38.432;2023-04-08T11:23:42;101285.19;;;26.38;17.70
74552;BME280;63025;55.472;38.432;2023-04-08T11:26:07;101289.09;;;26.26;17.61
74552;BME280;63025;55.472;38.432;2023-04-08T11:28:34;101285.22;;;27.45;17.10
74552;BME280;63025;55.472;38.432;2023-04-08T11:31:00;101283.56;;;28.58;16.37
74552;BME280;63025;55.472;38.432;2023-04-08T11:33:31;101277.56;;;27.08;16.39
74552;BME280;63025;55.472;38.432;2023-04-08T11:35:57;101290.75;;;26.33;17.13
74552;BME280;63025;55.472;38.432;2023-04-08T11:38:25;101264.56;;;26.69;16.90
74552;BME280;63025;55.472;38.432;2023-04-08T11:40:55;101274.00;;;27.02;17.24
74552;BME280;63025;55.472;38.432;2023-04-08T11:43:23;101282.63;;;26.56;16.92
74552;BME280;63025;55.472;38.432;2023-04-08T11:45:49;101275.38;;;26.11;17.55
74552;BME280;63025;55.472;38.432;2023-04-08T11:48:15;101269.00;;;26.70;16.98
74552;BME280;63025;55.472;38.432;2023-04-08T11:50:43;101264.50;;;27.18;16.92
74552;BME280;63025;55.472;38.432;2023-04-08T11:53:35;101266.22;;;27.38;16.30
74552;BME280;63025;55.472;38.432;2023-04-08T11:56:18;101264.94;;;27.54;17.05
74552;BME280;63025;55.472;38.432;2023-04-08T11:58:44;101259.50;;;28.58;16.63
74552;BME280;63025;55.472;38.432;2023-04-08T12:01:10;101264.44;;;28.42;15.41
74552;BME280;63025;55.472;38.432;2023-04-08T12:03:36;101261.69;;;26.50;16.11
74552;BME280;63025;55.472;38.432;2023-04-08T12:06:02;101255.63;;;26.87;15.75
74552;BME280;63025;55.472;38.432;2023-04-08T12:08:30;101260.00;;;27.27;15.70
74552;BME280;63025;55.472;38.432;2023-04-08T12:10:55;101258.28;;;26.63;16.79
74552;BME280;63025;55.472;38.432;2023-04-08T12:13:21;101266.16;;;25.82;16.76
74552;BME280;63025;55.472;38.432;2023-04-08T12:15:47;101253.44;;;27.47;16.26
74552;BME280;63025;55.472;38.432;2023-04-08T12:18:13;101262.25;;;27.97;15.84
74552;BME280;63025;55.472;38.432;2023-04-08T12:20:38;101249.94;;;27.36;15.70
74552;BME280;63025;55.472;38.432;2023-04-08T12:23:04;101254.84;;;27.16;16.38
74552;BME280;63025;55.472;38.432;2023-04-08T12:25:32;101252.38;;;25.82;17.10
74552;BME280;63025;55.472;38.432;2023-04-08T12:27:58;101247.56;;;25.08;17.72
74552;BME280;63025;55.472;38.432;2023-04-08T12:30:23;101244.25;;;25.06;17.74
74552;BME280;63025;55.472;38.432;2023-04-08T12:32:49;101239.00;;;24.64;17.98
74552;BME280;63025;55.472;38.432;2023-04-08T12:35:15;101245.91;;;25.12;18.49
74552;BME280;63025;55.472;38.432;2023-04-08T12:37:40;101233.78;;;24.77;18.19
74552;BME280;63025;55.472;38.432;2023-04-08T12:40:07;101233.22;;;25.31;18.00
74552;BME280;63025;55.472;38.432;2023-04-08T12:42:32;101234.31;;;24.84;18.08
74552;BME280;63025;55.472;38.432;2023-04-08T12:44:59;101231.84;;;25.29;17.90
74552;BME280;63025;55.472;38.432;2023-04-08T12:47:25;101232.31;;;25.71;17.61
74552;BME280;63025;55.472;38.432;2023-04-08T12:49:51;101230.47;;;24.85;17.60
74552;BME280;63025;55.472;38.432;2023-04-08T12:52:17;101245.88;;;23.36;19.38
74552;BME280;63025;55.472;38.432;2023-04-08T12:54:43;101234.97;;;23.47;19.49